sensor_id;sensor_type;location;lat;lon;timestamp;P1;durP1;ratioP1;P2;durP2;ratioP2
14013;SDS011;49110;52.584;13.408;2023-01-04T00:00:48;8.37;;;4.43;;
14013;SDS011;49110;52.584;13.408;2023-01-04T00:01:49;5.67;;;4.27;;
14013;SDS011;49110;52.584;13.408;2023-01-04T00:02:49;5.93;;;4.77;;
14013;SDS011;49110;52.584;13.408;2023-01-04T00:03:50;6.30;;;4.00;;
14013;SDS011;49110;52.584;13.408;2023-01-04T00:04:50;4.90;;;4.10;;
14013;SDS011;49110;52.584;13.408;2023-01-04T00:05:51;4.83;;;3.97;;
14013;SDS011;49110;52.584;13.408;2023-01-04T00:06:52;4.57;;;4.18;;
14013;SDS011;49110;52.584;13.408;2023-01-04T00:07:53;5.43;;;4.30;;
14013;SDS011;49110;52.584;13.408;2023-01-04T00:08:53;5.67;;;4.10;;
14013;SDS011;49110;52.584;13.408;2023-01-04T00:09:54;6.60;;;4.50;;
14013;SDS011;49110;52.584;13.408;2023-01-04T00:11:01;4.60;;;4.07;;
14013;SDS011;49110;52.584;13.408;2023-01-04T00:12:02;4.72;;;4.18;;
14013;SDS011;49110;52.584;13.408;2023-01-04T00:13:03;5.13;;;3.93;;
14013;SDS011;49110;52.584;13.408;2023-01-04T00:14:04;5.83;;;4.20;;
14013;SDS011;49110;52.584;13.408;2023-01-04T00:15:04;5.90;;;4.43;;
14013;SDS011;49110;52.584;13.408;2023-01-04T00:16:07;5.68;;;3.70;;
14013;SDS011;49110;52.584;13.408;2023-01-04T00:17:12;5.80;;;4.40;;
14013;SDS011;49110;52.584;13.408;2023-01-04T00:18:12;5.37;;;3.93;;
14013;SDS011;49110;52.584;13.408;2023-01-04T00:19:13;4.47;;;3.80;;
14013;SDS011;49110;52.584;13.408;2023-01-04T00:20:13;5.30;;;4.10;;
14013;SDS011;49110;52.584;13.408;2023-01-04T00:21:18;5.57;;;4.10;;
14013;SDS011;49110;52.584;13.408;2023-01-04T00:22:23;4.20;;;3.70;;
14013;SDS011;49110;52.584;13.408;2023-01-04T00:23:24;4.93;;;4.13;;
14013;SDS011;49110;52.584;13.408;2023-01-04T00:24:24;4.20;;;3.80;;
14013;SDS011;49110;52.584;13.408;2023-01-04T00:25:25;4.73;;;4.20;;
14013;SDS011;49110;52.584;13.408;2023-01-04T00:26:26;4.27;;;3.73;;
14013;SDS011;49110;52.584;13.408;2023-01-04T00:27:29;4.32;;;3.92;;
14013;SDS011;49110;52.584;13.408;2023-01-04T00:28:30;4.20;;;3.80;;
14013;SDS011;49110;52.584;13.408;2023-01-04T00:29:30;6.47;;;4.03;;
14013;SDS011;49110;52.584;13.408;2023-01-04T00:30:32;4.60;;;3.72;;
14013;SDS011;49110;52.584;13.408;2023-01-04T00:31:33;6.53;;;4.07;;
14013;SDS011;49110;52.584;13.408;2023-01-04T00:32:33;5.05;;;4.05;;
14013;SDS011;49110;52.584;13.408;2023-01-04T00:33:34;4.77;;;4.20;;
14013;SDS011;49110;52.584;13.408;2023-01-04T00:34:35;4.20;;;3.80;;
14013;SDS011;49110;52.584;13.408;2023-01-04T00:35:36;4.10;;;3.70;;
14013;SDS011;49110;52.584;13.408;2023-01-04T00:36:36;6.77;;;3.87;;
14013;SDS011;49110;52.584;13.408;2023-01-04T00:37:36;4.80;;;4.10;;
14013;SDS011;49110;52.584;13.408;2023-01-04T00:38:37;6.00;;;4.23;;
14013;SDS011;49110;52.584;13.408;2023-01-04T00:39:38;5.70;;;4.00;;
14013;SDS011;49110;52.584;13.408;2023-01-04T00:40:39;4.07;;;3.70;;
14013;SDS011;49110;52.584;13.408;2023-01-04T00:42:44;5.97;;;4.03;;
14013;SDS011;49110;52.584;13.408;2023-01-04T00:43:44;4.73;;;3.77;;
14013;SDS011;49110;52.584;13.408;2023-01-04T00:44:44;4.50;;;3.77;;
14013;SDS011;49110;52.584;13.408;2023-01-04T00:45:45;4.57;;;3.73;;
14013;SDS011;49110;52.584;13.408;2023-01-04T00:46:45;5.33;;;3.53;;
14013;SDS011;49110;52.584;13.408;2023-01-04T00:47:46;3.90;;;3.53;;
14013;SDS011;49110;52.584;13.408;2023-01-04T00:48:47;6.00;;;3.90;;
14013;SDS011;49110;52.584;13.408;2023-01-04T00:49:47;5.27;;;3.70;;
14013;SDS011;49110;52.584;13.408;2023-01-04T00:50:48;7.07;;;4.00;;
14013;SDS011;49110;52.584;13.408;2023-01-04T00:51:49;4.50;;;4.05;;
14013;SDS011;49110;52.584;13.408;2023-01-04T00:52:50;4.83;;;4.10;;
14013;SDS011;49110;52.584;13.408;2023-01-04T00:53:50;5.33;;;3.53;;
14013;SDS011;49110;52.584;13.408;2023-01-04T00:54:51;6.20;;;4.05;;
14013;SDS011;49110;52.584;13.408;2023-01-04T00:55:57;4.80;;;3.53;;
14013;SDS011;49110;52.584;13.408;2023-01-04T00:56:58;5.82;;;4.10;;
14013;SDS011;49110;52.584;13.408;2023-01-04T00:58:00;7.25;;;4.13;;
14013;SDS011;49110;52.584;13.408;2023-01-04T00:59:00;4.30;;;3.63;;
14013;SDS011;49110;52.584;13.408;2023-01-04T01:00:02;4.43;;;3.70;;
14013;SDS011;49110;52.584;13.408;2023-01-04T01:01:04;3.77;;;3.20;;
14013;SDS011;49110;52.584;13.408;2023-01-04T01:02:07;4.82;;;3.60;;
14013;SDS011;49110;52.584;13.408;2023-01-04T01:03:08;5.83;;;3.80;;
14013;SDS011;49110;52.584;13.408;2023-01-04T01:04:09;4.30;;;3.90;;
14013;SDS011;49110;52.584;13.408;2023-01-04T01:05:11;5.53;;;3.80;;
14013;SDS011;49110;52.584;13.408;2023-01-04T01:06:11;4.00;;;3.60;;
14013;SDS011;49110;52.584;13.408;2023-01-04T01:07:12;3.83;;;3.43;;
14013;SDS011;49110;52.584;13.408;2023-01-04T01:08:13;4.33;;;3.93;;
14013;SDS011;49110;52.584;13.408;2023-01-04T01:09:25;4.53;;;4.10;;
14013;SDS011;49110;52.584;13.408;2023-01-04T01:10:26;4.13;;;3.60;;
14013;SDS011;49110;52.584;13.408;2023-01-04T01:11:27;5.27;;;3.80;;
14013;SDS011;49110;52.584;13.408;2023-01-04T01:12:28;3.58;;;3.25;;
14013;SDS011;49110;52.584;13.408;2023-01-04T01:13:29;4.37;;;3.20;;
14013;SDS011;49110;52.584;13.408;2023-01-04T01:14:30;4.57;;;3.65;;
14013;SDS011;49110;52.584;13.408;2023-01-04T01:15:30;5.93;;;3.70;;
14013;SDS011;49110;52.584;13.408;2023-01-04T01:16:33;4.77;;;3.77;;
14013;SDS011;49110;52.584;13.408;2023-01-04T01:17:34;4.23;;;3.40;;
14013;SDS011;49110;52.584;13.408;2023-01-04T01:18:36;3.85;;;3.40;;
14013;SDS011;49110;52.584;13.408;2023-01-04T01:19:38;6.22;;;3.67;;
14013;SDS011;49110;52.584;13.408;2023-01-04T01:20:42;4.17;;;3.50;;
14013;SDS011;49110;52.584;13.408;2023-01-04T01:21:43;4.53;;;3.58;;
14013;SDS011;49110;52.584;13.408;2023-01-04T01:22:44;5.83;;;3.83;;
14013;SDS011;49110;52.584;13.408;2023-01-04T01:23:44;6.17;;;3.73;;
14013;SDS011;49110;52.584;13.408;2023-01-04T01:24:46;4.68;;;3.50;;
14013;SDS011;49110;52.584;13.408;2023-01-04T01:25:46;3.27;;;2.97;;
14013;SDS011;49110;52.584;13.408;2023-01-04T01:26:47;3.83;;;3.43;;
14013;SDS011;49110;52.584;13.408;2023-01-04T01:27:47;3.60;;;3.30;;
14013;SDS011;49110;52.584;13.408;2023-01-04T01:28:48;3.60;;;3.30;;
14013;SDS011;49110;52.584;13.408;2023-01-04T01:29:49;4.20;;;3.60;;
14013;SDS011;49110;52.584;13.408;2023-01-04T01:30:49;3.53;;;3.23;;
14013;SDS011;49110;52.584;13.408;2023-01-04T01:31:50;5.20;;;3.50;;
14013;SDS011;49110;52.584;13.408;2023-01-04T01:32:50;4.20;;;3.40;;
14013;SDS011;49110;52.584;13.408;2023-01-04T01:33:52;3.77;;;3.40;;
14013;SDS011;49110;52.584;13.408;2023-01-04T01:34:53;4.28;;;3.60;;
14013;SDS011;49110;52.584;13.408;2023-01-04T01:35:54;3.43;;;3.13;;
14013;SDS011;49110;52.584;13.408;2023-01-04T01:36:59;3.97;;;3.55;;
14013;SDS011;49110;52.584;13.408;2023-01-04T01:38:01;3.85;;;3.33;;
14013;SDS011;49110;52.584;13.408;2023-01-04T01:39:02;4.50;;;3.50;;
14013;SDS011;49110;52.584;13.408;2023-01-04T01:40:03;3.75;;;3.20;;
14013;SDS011;49110;52.584;13.408;2023-01-04T01:41:05;5.05;;;3.25;;
14013;SDS011;49110;52.584;13.408;2023-01-04T01:42:10;4.93;;;3.40;;
14013;SDS011;49110;52.584;13.408;2023-01-04T01:43:17;5.57;;;3.35;;
14013;SDS011;49110;52.584;13.408;2023-01-04T01:45:41;4.15;;;2.80;;
14013;SDS011;49110;52.584;13.408;2023-01-04T01:46:42;4.33;;;3.30;;
14013;SDS011;49110;52.584;13.408;2023-01-04T01:47:47;3.55;;;3.05;;
14013;SDS011;49110;52.584;13.408;2023-01-04T01:48:50;4.15;;;3.28;;
14013;SDS011;49110;52.584;13.408;2023-01-04T01:49:53;4.40;;;3.08;;
14013;SDS011;49110;52.584;13.408;2023-01-04T01:50:58;3.40;;;3.10;;
14013;SDS011;49110;52.584;13.408;2023-01-04T01:52:02;4.05;;;3.17;;
14013;SDS011;49110;52.584;13.408;2023-01-04T01:53:09;3.58;;;3.10;;
14013;SDS011;49110;52.584;13.408;2023-01-04T01:54:14;3.92;;;3.53;;
14013;SDS011;49110;52.584;13.408;2023-01-04T01:55:19;3.95;;;3.20;;
14013;SDS011;49110;52.584;13.408;2023-01-04T01:56:21;3.53;;;3.08;;
14013;SDS011;49110;52.584;13.408;2023-01-04T01:57:22;5.37;;;3.03;;
14013;SDS011;49110;52.584;13.408;2023-01-04T01:58:27;5.50;;;3.10;;
14013;SDS011;49110;52.584;13.408;2023-01-04T01:59:33;3.95;;;3.30;;
14013;SDS011;49110;52.584;13.408;2023-01-04T02:00:37;3.95;;;2.83;;
14013;SDS011;49110;52.584;13.408;2023-01-04T02:01:37;6.23;;;3.27;;
14013;SDS011;49110;52.584;13.408;2023-01-04T02:02:44;3.80;;;3.20;;
14013;SDS011;49110;52.584;13.408;2023-01-04T02:03:52;3.95;;;3.08;;
14013;SDS011;49110;52.584;13.408;2023-01-04T02:04:53;4.05;;;3.05;;
14013;SDS011;49110;52.584;13.408;2023-01-04T02:05:55;4.32;;;3.45;;
14013;SDS011;49110;52.584;13.408;2023-01-04T02:06:58;3.20;;;2.90;;
14013;SDS011;49110;52.584;13.408;2023-01-04T02:08:00;3.50;;;3.17;;
14013;SDS011;49110;52.584;13.408;2023-01-04T02:09:02;3.85;;;3.08;;
14013;SDS011;49110;52.584;13.408;2023-01-04T02:10:03;4.15;;;3.08;;
14013;SDS011;49110;52.584;13.408;2023-01-04T02:11:05;3.38;;;3.08;;
14013;SDS011;49110;52.584;13.408;2023-01-04T02:12:09;3.57;;;3.20;;
14013;SDS011;49110;52.584;13.408;2023-01-04T02:13:11;3.60;;;3.08;;
14013;SDS011;49110;52.584;13.408;2023-01-04T02:14:20;3.15;;;2.70;;
14013;SDS011;49110;52.584;13.408;2023-01-04T02:15:26;7.35;;;3.45;;
14013;SDS011;49110;52.584;13.408;2023-01-04T02:17:47;3.17;;;2.88;;
14013;SDS011;49110;52.584;13.408;2023-01-04T02:20:52;3.20;;;2.90;;
14013;SDS011;49110;52.584;13.408;2023-01-04T02:26:46;3.42;;;2.90;;
14013;SDS011;49110;52.584;13.408;2023-01-04T02:29:35;3.13;;;2.70;;
14013;SDS011;49110;52.584;13.408;2023-01-04T02:32:25;3.58;;;2.88;;
14013;SDS011;49110;52.584;13.408;2023-01-04T02:33:40;3.38;;;2.67;;
14013;SDS011;49110;52.584;13.408;2023-01-04T02:36:54;3.40;;;3.10;;
14013;SDS011;49110;52.584;13.408;2023-01-04T02:38:13;2.67;;;2.47;;
14013;SDS011;49110;52.584;13.408;2023-01-04T02:39:33;3.95;;;3.17;;
14013;SDS011;49110;52.584;13.408;2023-01-04T02:40:46;4.60;;;2.63;;
14013;SDS011;49110;52.584;13.408;2023-01-04T02:42:11;4.85;;;3.08;;
14013;SDS011;49110;52.584;13.408;2023-01-04T02:45:36;4.28;;;2.72;;
14013;SDS011;49110;52.584;13.408;2023-01-04T02:46:42;3.83;;;2.67;;
14013;SDS011;49110;52.584;13.408;2023-01-04T02:47:49;3.40;;;2.58;;
14013;SDS011;49110;52.584;13.408;2023-01-04T02:49:08;3.78;;;2.80;;
14013;SDS011;49110;52.584;13.408;2023-01-04T02:51:31;2.95;;;2.67;;
14013;SDS011;49110;52.584;13.408;2023-01-04T02:52:33;5.10;;;3.08;;
14013;SDS011;49110;52.584;13.408;2023-01-04T02:53:34;2.97;;;2.73;;
14013;SDS011;49110;52.584;13.408;2023-01-04T02:54:39;4.40;;;3.30;;
14013;SDS011;49110;52.584;13.408;2023-01-04T02:55:51;3.92;;;2.80;;
14013;SDS011;49110;52.584;13.408;2023-01-04T02:58:35;3.35;;;3.00;;
14013;SDS011;49110;52.584;13.408;2023-01-04T03:04:02;3.65;;;2.70;;
14013;SDS011;49110;52.584;13.408;2023-01-04T03:05:44;4.85;;;3.22;;
14013;SDS011;49110;52.584;13.408;2023-01-04T03:07:23;4.85;;;3.40;;
14013;SDS011;49110;52.584;13.408;2023-01-04T03:11:50;4.47;;;3.65;;
14013;SDS011;49110;52.584;13.408;2023-01-04T03:13:16;4.88;;;3.80;;
14013;SDS011;49110;52.584;13.408;2023-01-04T03:14:26;3.47;;;3.17;;
14013;SDS011;49110;52.584;13.408;2023-01-04T03:15:33;3.65;;;3.35;;
14013;SDS011;49110;52.584;13.408;2023-01-04T03:16:36;5.13;;;3.40;;
14013;SDS011;49110;52.584;13.408;2023-01-04T03:17:40;3.85;;;3.35;;
14013;SDS011;49110;52.584;13.408;2023-01-04T03:18:46;4.38;;;3.45;;
14013;SDS011;49110;52.584;13.408;2023-01-04T03:19:49;4.20;;;3.60;;
14013;SDS011;49110;52.584;13.408;2023-01-04T03:20:55;3.72;;;3.20;;
14013;SDS011;49110;52.584;13.408;2023-01-04T03:21:57;3.60;;;3.20;;
14013;SDS011;49110;52.584;13.408;2023-01-04T03:22:59;3.87;;;2.87;;
14013;SDS011;49110;52.584;13.408;2023-01-04T03:24:23;4.43;;;3.15;;
14013;SDS011;49110;52.584;13.408;2023-01-04T03:25:46;2.90;;;2.70;;
14013;SDS011;49110;52.584;13.408;2023-01-04T03:27:11;4.60;;;3.05;;
14013;SDS011;49110;52.584;13.408;2023-01-04T03:28:32;4.78;;;3.42;;
14013;SDS011;49110;52.584;13.408;2023-01-04T03:29:59;5.13;;;3.10;;
14013;SDS011;49110;52.584;13.408;2023-01-04T03:31:27;4.97;;;2.88;;
14013;SDS011;49110;52.584;13.408;2023-01-04T03:32:54;3.40;;;3.10;;
14013;SDS011;49110;52.584;13.408;2023-01-04T03:34:24;3.33;;;2.83;;
14013;SDS011;49110;52.584;13.408;2023-01-04T03:35:49;3.72;;;3.10;;
14013;SDS011;49110;52.584;13.408;2023-01-04T03:37:06;4.50;;;3.63;;
14013;SDS011;49110;52.584;13.408;2023-01-04T03:38:28;4.80;;;2.95;;
14013;SDS011;49110;52.584;13.408;2023-01-04T03:41:26;3.78;;;2.80;;
14013;SDS011;49110;52.584;13.408;2023-01-04T03:42:55;6.00;;;3.30;;
14013;SDS011;49110;52.584;13.408;2023-01-04T03:44:45;3.47;;;2.78;;
14013;SDS011;49110;52.584;13.408;2023-01-04T03:46:43;6.18;;;3.38;;
14013;SDS011;49110;52.584;13.408;2023-01-04T03:48:09;3.47;;;3.10;;
14013;SDS011;49110;52.584;13.408;2023-01-04T03:49:35;4.22;;;3.50;;
14013;SDS011;49110;52.584;13.408;2023-01-04T03:50:46;3.53;;;2.85;;
14013;SDS011;49110;52.584;13.408;2023-01-04T03:51:53;6.35;;;2.92;;
14013;SDS011;49110;52.584;13.408;2023-01-04T03:52:57;4.07;;;3.28;;
14013;SDS011;49110;52.584;13.408;2023-01-04T03:54:02;5.68;;;3.08;;
14013;SDS011;49110;52.584;13.408;2023-01-04T03:55:10;4.95;;;3.17;;
14013;SDS011;49110;52.584;13.408;2023-01-04T03:56:12;4.55;;;3.10;;
14013;SDS011;49110;52.584;13.408;2023-01-04T03:57:14;3.50;;;3.13;;
14013;SDS011;49110;52.584;13.408;2023-01-04T03:58:16;3.72;;;3.03;;
14013;SDS011;49110;52.584;13.408;2023-01-04T03:59:19;4.22;;;3.05;;
14013;SDS011;49110;52.584;13.408;2023-01-04T04:00:21;4.85;;;2.78;;
14013;SDS011;49110;52.584;13.408;2023-01-04T04:01:23;4.77;;;3.40;;
14013;SDS011;49110;52.584;13.408;2023-01-04T04:02:27;4.75;;;3.15;;
14013;SDS011;49110;52.584;13.408;2023-01-04T04:03:29;3.08;;;2.80;;
14013;SDS011;49110;52.584;13.408;2023-01-04T04:04:49;3.20;;;2.90;;
14013;SDS011;49110;52.584;13.408;2023-01-04T04:06:08;4.03;;;3.30;;
14013;SDS011;49110;52.584;13.408;2023-01-04T04:07:27;3.40;;;2.90;;
14013;SDS011;49110;52.584;13.408;2023-01-04T04:08:46;3.67;;;2.92;;
14013;SDS011;49110;52.584;13.408;2023-01-04T04:09:47;3.67;;;2.90;;
14013;SDS011;49110;52.584;13.408;2023-01-04T04:10:47;5.63;;;3.60;;
14013;SDS011;49110;52.584;13.408;2023-01-04T04:11:48;4.00;;;3.07;;
14013;SDS011;49110;52.584;13.408;2023-01-04T04:12:49;4.13;;;3.10;;
14013;SDS011;49110;52.584;13.408;2023-01-04T04:13:49;3.63;;;3.17;;
14013;SDS011;49110;52.584;13.408;2023-01-04T04:14:50;4.13;;;2.87;;
14013;SDS011;49110;52.584;13.408;2023-01-04T04:15:51;3.60;;;3.10;;
14013;SDS011;49110;52.584;13.408;2023-01-04T04:16:52;4.32;;;2.90;;
14013;SDS011;49110;52.584;13.408;2023-01-04T04:17:52;3.53;;;3.00;;
14013;SDS011;49110;52.584;13.408;2023-01-04T04:18:53;4.17;;;3.20;;
14013;SDS011;49110;52.584;13.408;2023-01-04T04:19:54;3.53;;;3.03;;
14013;SDS011;49110;52.584;13.408;2023-01-04T04:20:57;3.07;;;2.80;;
14013;SDS011;49110;52.584;13.408;2023-01-04T04:21:58;2.88;;;2.60;;
14013;SDS011;49110;52.584;13.408;2023-01-04T04:22:58;3.67;;;2.97;;
14013;SDS011;49110;52.584;13.408;2023-01-04T04:23:59;4.57;;;3.23;;
14013;SDS011;49110;52.584;13.408;2023-01-04T04:24:59;3.30;;;2.70;;
14013;SDS011;49110;52.584;13.408;2023-01-04T04:25:59;3.30;;;2.90;;
14013;SDS011;49110;52.584;13.408;2023-01-04T04:27:00;3.17;;;2.73;;
14013;SDS011;49110;52.584;13.408;2023-01-04T04:28:00;3.80;;;3.50;;
14013;SDS011;49110;52.584;13.408;2023-01-04T04:29:01;3.67;;;3.07;;
14013;SDS011;49110;52.584;13.408;2023-01-04T04:30:02;4.17;;;3.27;;
14013;SDS011;49110;52.584;13.408;2023-01-04T04:31:03;3.28;;;2.97;;
14013;SDS011;49110;52.584;13.408;2023-01-04T04:32:04;3.33;;;2.83;;
14013;SDS011;49110;52.584;13.408;2023-01-04T04:33:04;3.30;;;2.77;;
14013;SDS011;49110;52.584;13.408;2023-01-04T04:34:05;4.13;;;3.30;;
14013;SDS011;49110;52.584;13.408;2023-01-04T04:35:05;4.43;;;3.10;;
14013;SDS011;49110;52.584;13.408;2023-01-04T04:36:06;3.20;;;2.90;;
14013;SDS011;49110;52.584;13.408;2023-01-04T04:37:07;3.20;;;2.90;;
14013;SDS011;49110;52.584;13.408;2023-01-04T04:38:08;3.63;;;3.17;;
14013;SDS011;49110;52.584;13.408;2023-01-04T04:39:09;4.43;;;3.23;;
14013;SDS011;49110;52.584;13.408;2023-01-04T04:40:10;3.85;;;3.10;;
14013;SDS011;49110;52.584;13.408;2023-01-04T04:41:31;5.18;;;3.45;;
14013;SDS011;49110;52.584;13.408;2023-01-04T04:42:37;2.85;;;2.60;;
14013;SDS011;49110;52.584;13.408;2023-01-04T04:43:38;7.07;;;2.93;;
14013;SDS011;49110;52.584;13.408;2023-01-04T04:44:38;3.60;;;2.77;;
14013;SDS011;49110;52.584;13.408;2023-01-04T04:45:38;4.03;;;3.10;;
14013;SDS011;49110;52.584;13.408;2023-01-04T04:46:39;3.70;;;3.00;;
14013;SDS011;49110;52.584;13.408;2023-01-04T04:47:40;3.80;;;3.00;;
14013;SDS011;49110;52.584;13.408;2023-01-04T04:48:40;5.33;;;3.33;;
14013;SDS011;49110;52.584;13.408;2023-01-04T04:49:41;3.73;;;3.00;;
14013;SDS011;49110;52.584;13.408;2023-01-04T04:50:41;3.93;;;3.23;;
14013;SDS011;49110;52.584;13.408;2023-01-04T04:51:42;3.43;;;3.00;;
14013;SDS011;49110;52.584;13.408;2023-01-04T04:52:43;5.32;;;3.30;;
14013;SDS011;49110;52.584;13.408;2023-01-04T04:53:44;3.80;;;3.00;;
14013;SDS011;49110;52.584;13.408;2023-01-04T04:54:44;4.23;;;3.00;;
14013;SDS011;49110;52.584;13.408;2023-01-04T04:55:51;4.55;;;2.85;;
14013;SDS011;49110;52.584;13.408;2023-01-04T04:56:53;3.10;;;2.67;;
14013;SDS011;49110;52.584;13.408;2023-01-04T04:57:53;3.57;;;3.00;;
14013;SDS011;49110;52.584;13.408;2023-01-04T04:58:54;5.87;;;3.10;;
14013;SDS011;49110;52.584;13.408;2023-01-04T04:59:54;5.67;;;3.10;;
14013;SDS011;49110;52.584;13.408;2023-01-04T05:00:55;3.43;;;3.10;;
14013;SDS011;49110;52.584;13.408;2023-01-04T05:01:55;3.57;;;3.00;;
14013;SDS011;49110;52.584;13.408;2023-01-04T05:02:59;3.83;;;3.10;;
14013;SDS011;49110;52.584;13.408;2023-01-04T05:04:00;4.18;;;3.40;;
14013;SDS011;49110;52.584;13.408;2023-01-04T05:05:00;3.93;;;3.07;;
14013;SDS011;49110;52.584;13.408;2023-01-04T05:06:01;3.93;;;2.80;;
14013;SDS011;49110;52.584;13.408;2023-01-04T05:07:02;3.40;;;3.10;;
14013;SDS011;49110;52.584;13.408;2023-01-04T05:08:02;4.83;;;3.40;;
14013;SDS011;49110;52.584;13.408;2023-01-04T05:09:03;3.70;;;3.20;;
14013;SDS011;49110;52.584;13.408;2023-01-04T05:10:04;3.40;;;2.80;;
14013;SDS011;49110;52.584;13.408;2023-01-04T05:11:05;4.47;;;2.87;;
14013;SDS011;49110;52.584;13.408;2023-01-04T05:12:07;5.35;;;3.22;;
14013;SDS011;49110;52.584;13.408;2023-01-04T05:13:29;3.08;;;2.75;;
14013;SDS011;49110;52.584;13.408;2023-01-04T05:14:30;4.83;;;3.03;;
14013;SDS011;49110;52.584;13.408;2023-01-04T05:15:31;3.53;;;3.13;;
14013;SDS011;49110;52.584;13.408;2023-01-04T05:16:34;2.90;;;2.60;;
14013;SDS011;49110;52.584;13.408;2023-01-04T05:17:35;3.17;;;2.87;;
14013;SDS011;49110;52.584;13.408;2023-01-04T05:18:35;4.03;;;3.13;;
14013;SDS011;49110;52.584;13.408;2023-01-04T05:19:36;6.80;;;3.50;;
14013;SDS011;49110;52.584;13.408;2023-01-04T05:20:36;3.33;;;3.00;;
14013;SDS011;49110;52.584;13.408;2023-01-04T05:21:37;3.13;;;2.80;;
14013;SDS011;49110;52.584;13.408;2023-01-04T05:22:38;3.93;;;2.90;;
14013;SDS011;49110;52.584;13.408;2023-01-04T05:23:39;4.03;;;2.80;;
14013;SDS011;49110;52.584;13.408;2023-01-04T05:24:40;4.87;;;3.20;;
14013;SDS011;49110;52.584;13.408;2023-01-04T05:25:40;3.37;;;2.80;;
14013;SDS011;49110;52.584;13.408;2023-01-04T05:26:41;4.57;;;2.87;;
14013;SDS011;49110;52.584;13.408;2023-01-04T05:27:41;4.57;;;3.00;;
14013;SDS011;49110;52.584;13.408;2023-01-04T05:28:42;5.90;;;3.30;;
14013;SDS011;49110;52.584;13.408;2023-01-04T05:29:42;3.40;;;2.80;;
14013;SDS011;49110;52.584;13.408;2023-01-04T05:31:01;4.57;;;2.60;;
14013;SDS011;49110;52.584;13.408;2023-01-04T05:32:02;3.50;;;3.20;;
14013;SDS011;49110;52.584;13.408;2023-01-04T05:33:02;3.90;;;2.90;;
14013;SDS011;49110;52.584;13.408;2023-01-04T05:34:04;4.30;;;2.97;;
14013;SDS011;49110;52.584;13.408;2023-01-04T05:35:04;5.37;;;3.13;;
14013;SDS011;49110;52.584;13.408;2023-01-04T05:36:05;5.07;;;3.13;;
14013;SDS011;49110;52.584;13.408;2023-01-04T05:37:06;3.07;;;2.53;;
14013;SDS011;49110;52.584;13.408;2023-01-04T05:38:06;4.20;;;3.07;;
14013;SDS011;49110;52.584;13.408;2023-01-04T05:39:07;4.40;;;3.00;;
14013;SDS011;49110;52.584;13.408;2023-01-04T05:40:08;3.90;;;2.60;;
14013;SDS011;49110;52.584;13.408;2023-01-04T05:41:08;4.73;;;2.80;;
14013;SDS011;49110;52.584;13.408;2023-01-04T05:42:28;2.95;;;2.50;;
14013;SDS011;49110;52.584;13.408;2023-01-04T05:43:28;4.30;;;2.93;;
14013;SDS011;49110;52.584;13.408;2023-01-04T05:44:29;3.13;;;2.83;;
14013;SDS011;49110;52.584;13.408;2023-01-04T05:45:29;4.37;;;2.70;;
14013;SDS011;49110;52.584;13.408;2023-01-04T05:46:30;6.73;;;2.83;;
14013;SDS011;49110;52.584;13.408;2023-01-04T05:47:30;3.93;;;2.43;;
14013;SDS011;49110;52.584;13.408;2023-01-04T05:48:31;4.20;;;2.80;;
14013;SDS011;49110;52.584;13.408;2023-01-04T05:49:31;3.80;;;2.77;;
14013;SDS011;49110;52.584;13.408;2023-01-04T05:50:32;6.03;;;3.20;;
14013;SDS011;49110;52.584;13.408;2023-01-04T05:51:32;4.17;;;2.80;;
14013;SDS011;49110;52.584;13.408;2023-01-04T05:52:33;4.50;;;2.50;;
14013;SDS011;49110;52.584;13.408;2023-01-04T05:53:34;3.55;;;3.10;;
14013;SDS011;49110;52.584;13.408;2023-01-04T05:54:35;3.70;;;3.00;;
14013;SDS011;49110;52.584;13.408;2023-01-04T05:55:35;3.03;;;2.70;;
14013;SDS011;49110;52.584;13.408;2023-01-04T05:56:35;2.97;;;2.77;;
14013;SDS011;49110;52.584;13.408;2023-01-04T05:57:36;3.80;;;2.83;;
14013;SDS011;49110;52.584;13.408;2023-01-04T05:58:36;5.40;;;2.70;;
14013;SDS011;49110;52.584;13.408;2023-01-04T05:59:37;4.53;;;3.20;;
14013;SDS011;49110;52.584;13.408;2023-01-04T06:00:37;4.40;;;2.50;;
14013;SDS011;49110;52.584;13.408;2023-01-04T06:01:38;6.57;;;2.93;;
14013;SDS011;49110;52.584;13.408;2023-01-04T06:02:39;4.07;;;2.60;;
14013;SDS011;49110;52.584;13.408;2023-01-04T06:03:40;3.25;;;2.95;;
14013;SDS011;49110;52.584;13.408;2023-01-04T06:04:40;5.77;;;2.77;;
14013;SDS011;49110;52.584;13.408;2023-01-04T06:05:41;2.80;;;2.60;;
14013;SDS011;49110;52.584;13.408;2023-01-04T06:06:41;4.33;;;3.20;;
14013;SDS011;49110;52.584;13.408;2023-01-04T06:07:41;4.67;;;2.47;;
14013;SDS011;49110;52.584;13.408;2023-01-04T06:08:42;3.20;;;2.50;;
14013;SDS011;49110;52.584;13.408;2023-01-04T06:09:43;3.10;;;2.70;;
14013;SDS011;49110;52.584;13.408;2023-01-04T06:10:43;3.67;;;2.60;;
14013;SDS011;49110;52.584;13.408;2023-01-04T06:11:44;2.87;;;2.63;;
14013;SDS011;49110;52.584;13.408;2023-01-04T06:12:45;3.73;;;2.90;;
14013;SDS011;49110;52.584;13.408;2023-01-04T06:13:46;3.53;;;2.70;;
14013;SDS011;49110;52.584;13.408;2023-01-04T06:14:46;3.00;;;2.70;;
14013;SDS011;49110;52.584;13.408;2023-01-04T06:15:47;3.40;;;2.77;;
14013;SDS011;49110;52.584;13.408;2023-01-04T06:16:47;4.03;;;2.80;;
14013;SDS011;49110;52.584;13.408;2023-01-04T06:17:48;3.13;;;2.83;;
14013;SDS011;49110;52.584;13.408;2023-01-04T06:18:48;2.80;;;2.53;;
14013;SDS011;49110;52.584;13.408;2023-01-04T06:19:49;2.97;;;2.50;;
14013;SDS011;49110;52.584;13.408;2023-01-04T06:20:50;4.40;;;2.87;;
14013;SDS011;49110;52.584;13.408;2023-01-04T06:21:50;3.38;;;2.42;;
14013;SDS011;49110;52.584;13.408;2023-01-04T06:22:51;2.97;;;2.77;;
14013;SDS011;49110;52.584;13.408;2023-01-04T06:23:52;2.90;;;2.70;;
14013;SDS011;49110;52.584;13.408;2023-01-04T06:24:52;4.53;;;2.80;;
14013;SDS011;49110;52.584;13.408;2023-01-04T06:25:53;2.97;;;2.67;;
14013;SDS011;49110;52.584;13.408;2023-01-04T06:26:53;3.53;;;2.50;;
14013;SDS011;49110;52.584;13.408;2023-01-04T06:27:54;3.83;;;2.40;;
14013;SDS011;49110;52.584;13.408;2023-01-04T06:28:54;4.70;;;2.73;;
14013;SDS011;49110;52.584;13.408;2023-01-04T06:29:55;2.90;;;2.33;;
14013;SDS011;49110;52.584;13.408;2023-01-04T06:30:56;3.03;;;2.40;;
14013;SDS011;49110;52.584;13.408;2023-01-04T06:31:56;2.50;;;2.30;;
14013;SDS011;49110;52.584;13.408;2023-01-04T06:32:57;4.23;;;2.60;;
14013;SDS011;49110;52.584;13.408;2023-01-04T06:33:57;2.67;;;2.17;;
14013;SDS011;49110;52.584;13.408;2023-01-04T06:34:58;3.70;;;2.37;;
14013;SDS011;49110;52.584;13.408;2023-01-04T06:35:59;3.53;;;2.80;;
14013;SDS011;49110;52.584;13.408;2023-01-04T06:36:59;3.17;;;2.60;;
14013;SDS011;49110;52.584;13.408;2023-01-04T06:38:00;3.30;;;2.50;;
14013;SDS011;49110;52.584;13.408;2023-01-04T06:39:00;4.37;;;2.60;;
14013;SDS011;49110;52.584;13.408;2023-01-04T06:40:01;5.10;;;2.80;;
14013;SDS011;49110;52.584;13.408;2023-01-04T06:41:02;4.25;;;2.97;;
14013;SDS011;49110;52.584;13.408;2023-01-04T06:42:03;2.97;;;2.17;;
14013;SDS011;49110;52.584;13.408;2023-01-04T06:43:04;4.38;;;2.65;;
14013;SDS011;49110;52.584;13.408;2023-01-04T06:44:04;4.40;;;2.77;;
14013;SDS011;49110;52.584;13.408;2023-01-04T06:45:05;3.33;;;2.67;;
14013;SDS011;49110;52.584;13.408;2023-01-04T06:46:06;3.03;;;2.43;;
14013;SDS011;49110;52.584;13.408;2023-01-04T06:47:06;4.63;;;2.30;;
14013;SDS011;49110;52.584;13.408;2023-01-04T06:48:07;4.60;;;2.70;;
14013;SDS011;49110;52.584;13.408;2023-01-04T06:49:08;3.03;;;2.37;;
14013;SDS011;49110;52.584;13.408;2023-01-04T06:50:11;4.53;;;2.60;;